Terminal Aerodrome Forecast
Issued by NWS

Home | Current Version | Previous Version | Text Only | Print | Product List | Glossary On
Versions: 1 2 3 4 5 6 7 8 9 10 11 12 13 14 15 16 17
934
FTUS46 KPDT 262320
TAFBDN
TAF
KBDN 262320Z 2700/2724 33016G23KT P6SM SCT050
     FM270300 31013G19KT P6SM SCT050
     FM270900 29011KT P6SM BKN050
     FM271800 32012G20KT P6SM SCT040 BKN060=

USA.gov is the U.S. government's official web portal to all federal, state and local government web resources and services.